createdAt,value
2023-01-06T05:01:39.538Z,10.80
2023-01-06T05:04:11.333Z,10.80
2023-01-06T05:06:43.053Z,10.80
2023-01-06T05:09:14.709Z,10.80
2023-01-06T05:11:46.350Z,10.80
2023-01-06T05:14:20.664Z,10.80
2023-01-06T05:16:54.359Z,10.80
2023-01-06T05:19:26.030Z,10.70
2023-01-06T05:21:57.667Z,10.70
2023-01-06T05:24:29.313Z,10.70
2023-01-06T05:27:00.975Z,10.70
2023-01-06T05:29:32.639Z,10.70
2023-01-06T05:32:05.971Z,10.70
2023-01-06T05:34:37.631Z,10.70
2023-01-06T05:37:09.260Z,10.70
2023-01-06T05:39:40.918Z,10.80
2023-01-06T05:42:12.549Z,10.80
2023-01-06T05:44:44.193Z,10.80
2023-01-06T05:47:17.192Z,10.80
2023-01-06T05:49:48.876Z,10.80
2023-01-06T05:52:20.518Z,10.80
2023-01-06T05:54:52.186Z,10.80
2023-01-06T05:57:23.859Z,10.80
2023-01-06T05:59:55.540Z,10.80
2023-01-06T06:02:28.573Z,10.90
2023-01-06T06:05:00.262Z,10.90
2023-01-06T06:07:31.913Z,10.90
2023-01-06T06:10:04.323Z,10.90
2023-01-06T06:12:36.154Z,10.90
2023-01-06T06:15:08.493Z,10.90
2023-01-06T06:17:41.508Z,10.90
2023-01-06T06:20:13.179Z,10.90
2023-01-06T06:22:44.822Z,10.90
2023-01-06T06:25:16.619Z,10.90
2023-01-06T06:27:48.262Z,10.90
2023-01-06T06:30:19.929Z,10.90
2023-01-06T06:32:52.927Z,10.80
2023-01-06T06:35:24.586Z,10.80
2023-01-06T06:37:56.228Z,10.80
2023-01-06T06:40:27.882Z,10.90
2023-01-06T06:42:59.533Z,10.90
2023-01-06T06:45:31.209Z,10.90
2023-01-06T06:48:04.900Z,10.90
2023-01-06T06:50:36.551Z,10.90
2023-01-06T06:53:08.219Z,10.90
2023-01-06T06:55:39.880Z,10.90
2023-01-06T06:58:11.525Z,10.90
2023-01-06T07:00:43.195Z,10.90
2023-01-06T07:03:16.211Z,10.90
2023-01-06T07:05:47.916Z,11.00
2023-01-06T07:08:19.579Z,11.00
2023-01-06T07:10:51.245Z,11.00
2023-01-06T07:13:22.899Z,11.00
2023-01-06T07:15:54.664Z,11.00
2023-01-06T07:18:27.755Z,11.00
2023-01-06T07:20:59.418Z,11.00
2023-01-06T07:23:31.072Z,11.00
2023-01-06T07:26:02.732Z,11.00
2023-01-06T07:28:34.353Z,11.00
2023-01-06T07:31:06.097Z,11.00
2023-01-06T07:33:39.126Z,11.00
2023-01-06T07:36:10.797Z,11.00
2023-01-06T07:38:42.514Z,11.00
2023-01-06T07:41:14.175Z,11.00
2023-01-06T07:43:45.846Z,11.00
2023-01-06T07:46:17.549Z,11.00
2023-01-06T07:48:50.556Z,11.00
2023-01-06T07:51:22.212Z,11.00
2023-01-06T07:53:53.929Z,11.00
2023-01-06T07:56:25.582Z,11.00
2023-01-06T07:58:57.230Z,11.00
2023-01-06T08:01:29.066Z,11.00
2023-01-06T08:04:02.105Z,11.00
2023-01-06T08:06:33.727Z,11.00
2023-01-06T08:09:05.402Z,11.00
2023-01-06T08:11:37.048Z,11.00
2023-01-06T08:14:08.717Z,11.10
2023-01-06T08:16:40.354Z,11.00
2023-01-06T08:19:13.362Z,11.10
2023-01-06T08:21:44.991Z,11.10
2023-01-06T08:24:16.658Z,11.10
2023-01-06T08:26:48.292Z,11.10
2023-01-06T08:29:20.033Z,11.20
2023-01-06T08:31:56.908Z,11.20
2023-01-06T08:34:38.679Z,11.30
2023-01-06T08:37:10.356Z,11.30
2023-01-06T08:39:42.030Z,11.30
2023-01-06T08:42:13.695Z,11.30
2023-01-06T08:44:45.451Z,11.30
2023-01-06T08:47:17.105Z,11.30
2023-01-06T08:49:50.120Z,11.30
2023-01-06T08:52:21.781Z,11.30
2023-01-06T08:54:53.435Z,11.30
2023-01-06T08:57:25.114Z,11.30
2023-01-06T08:59:56.772Z,11.30
2023-01-06T09:02:29.074Z,11.30
2023-01-06T09:05:02.243Z,11.30
2023-01-06T09:07:33.993Z,11.40
2023-01-06T09:10:06.500Z,11.40
2023-01-06T09:12:38.349Z,11.40
2023-01-06T09:15:10.493Z,11.40
2023-01-06T09:17:42.215Z,11.40
2023-01-06T09:20:15.241Z,11.50
2023-01-06T09:22:46.892Z,11.50
2023-01-06T09:25:18.538Z,11.60
2023-01-06T09:27:50.267Z,11.60
2023-01-06T09:30:22.008Z,11.70
2023-01-06T09:32:53.676Z,11.80
2023-01-06T09:35:26.755Z,11.80
2023-01-06T09:37:58.394Z,11.90
2023-01-06T09:40:33.056Z,11.90
2023-01-06T09:43:09.182Z,12.00
2023-01-06T09:45:43.079Z,12.20
2023-01-06T09:48:16.133Z,12.20
2023-01-06T09:50:50.793Z,12.30
2023-01-06T09:53:24.040Z,12.30
2023-01-06T09:55:56.707Z,12.40
2023-01-06T09:58:30.888Z,12.40
2023-01-06T10:01:04.653Z,12.40
2023-01-06T10:03:36.304Z,12.40
2023-01-06T10:06:21.431Z,12.40
2023-01-06T10:08:56.235Z,12.40
2023-01-06T10:11:31.905Z,12.40
2023-01-06T10:14:09.190Z,12.50
2023-01-06T10:16:47.943Z,12.50
2023-01-06T10:19:23.224Z,12.60
2023-01-06T10:21:59.981Z,12.70
2023-01-06T10:24:42.682Z,12.70
2023-01-06T10:27:20.543Z,12.70
2023-01-06T10:29:52.246Z,12.70
2023-01-06T10:32:28.367Z,12.60
2023-01-06T10:35:00.070Z,12.50
2023-01-06T10:37:36.595Z,12.40
2023-01-06T10:40:15.886Z,12.40
2023-01-06T10:42:49.320Z,12.40
2023-01-06T10:45:22.915Z,12.30
2023-01-06T10:47:54.658Z,12.40
2023-01-06T10:50:26.433Z,12.40
2023-01-06T10:52:59.414Z,12.40
2023-01-06T10:55:38.939Z,12.40
2023-01-06T10:58:20.645Z,12.40
2023-01-06T11:00:56.775Z,12.50
2023-01-06T11:03:35.804Z,12.50
2023-01-06T11:06:08.905Z,12.60
2023-01-06T11:08:41.915Z,12.70
2023-01-06T11:11:27.145Z,12.80
2023-01-06T11:14:01.818Z,12.90
2023-01-06T11:16:34.214Z,12.90
2023-01-06T11:19:06.546Z,12.90
2023-01-06T11:21:39.598Z,12.90
2023-01-06T11:24:22.134Z,13.00
2023-01-06T11:26:54.717Z,13.00
2023-01-06T11:29:28.352Z,13.00
2023-01-06T11:32:03.561Z,13.10
2023-01-06T11:34:35.216Z,13.10
2023-01-06T11:37:06.868Z,13.10
2023-01-06T11:39:40.881Z,13.10
2023-01-06T11:42:13.452Z,13.10
2023-01-06T11:44:45.111Z,13.10
2023-01-06T11:47:17.751Z,13.10
2023-01-06T11:49:50.029Z,13.10
2023-01-06T11:52:23.485Z,13.00
2023-01-06T11:55:08.426Z,13.00
2023-01-06T11:57:41.723Z,12.90
2023-01-06T12:00:25.141Z,12.70
2023-01-06T12:03:00.512Z,12.60
2023-01-06T12:05:35.561Z,12.50
2023-01-06T12:08:11.126Z,12.40
2023-01-06T12:10:44.344Z,12.30
2023-01-06T12:13:15.994Z,12.30
2023-01-06T12:15:58.575Z,12.30
2023-01-06T12:18:31.163Z,12.40
2023-01-06T12:21:03.007Z,12.40
2023-01-06T12:23:35.868Z,12.50
2023-01-06T12:26:13.674Z,12.50
2023-01-06T12:28:45.931Z,12.50
2023-01-06T12:31:19.869Z,12.50
2023-01-06T12:33:54.366Z,12.40
2023-01-06T12:36:28.659Z,12.40
2023-01-06T12:39:01.884Z,12.30
2023-01-06T12:41:37.855Z,12.40
2023-01-06T12:44:16.179Z,12.30
2023-01-06T12:46:51.668Z,12.40
2023-01-06T12:49:26.968Z,12.40
2023-01-06T12:51:59.946Z,12.40
2023-01-06T12:54:32.794Z,12.40
2023-01-06T12:57:16.251Z,12.40
2023-01-06T12:59:57.565Z,12.40
2023-01-06T13:02:40.117Z,12.50
2023-01-06T13:05:21.224Z,12.40
2023-01-06T13:07:56.637Z,12.00
2023-01-06T13:10:31.003Z,12.40
2023-01-06T13:13:22.034Z,12.40
2023-01-06T13:15:53.861Z,12.50
2023-01-06T13:18:27.277Z,12.50
2023-01-06T13:21:00.859Z,12.50
2023-01-06T13:23:45.634Z,12.50
2023-01-06T13:26:36.821Z,12.40
2023-01-06T13:29:13.678Z,12.30
2023-01-06T13:31:59.578Z,12.30
2023-01-06T13:34:56.080Z,12.30
2023-01-06T13:37:35.016Z,12.30
2023-01-06T13:40:09.840Z,12.30
2023-01-06T13:42:44.497Z,12.30
2023-01-06T13:45:20.093Z,12.30
2023-01-06T13:47:51.742Z,12.40
2023-01-06T13:50:23.448Z,12.40
2023-01-06T13:52:55.081Z,12.20
2023-01-06T13:55:28.391Z,12.40
2023-01-06T13:58:35.452Z,12.30
2023-01-06T14:01:09.901Z,12.30
2023-01-06T14:03:42.006Z,12.20
2023-01-06T14:06:13.720Z,12.10
2023-01-06T14:08:48.314Z,12.10
2023-01-06T14:11:24.771Z,12.00
2023-01-06T14:13:57.158Z,12.00
2023-01-06T14:16:43.152Z,12.00
2023-01-06T14:19:18.470Z,12.00
2023-01-06T14:21:52.161Z,12.00
2023-01-06T14:24:27.082Z,12.00
2023-01-06T14:26:59.278Z,11.90
2023-01-06T14:30:00.828Z,11.90
2023-01-06T14:33:01.198Z,11.90
2023-01-06T14:35:35.000Z,11.90
2023-01-06T14:38:12.597Z,11.90
2023-01-06T14:40:47.845Z,11.90
2023-01-06T14:43:32.484Z,11.90
2023-01-06T14:46:07.767Z,11.90
2023-01-06T14:48:44.196Z,11.80
2023-01-06T14:51:17.621Z,11.80
2023-01-06T14:53:52.319Z,11.80
2023-01-06T14:56:24.964Z,11.70
2023-01-06T14:59:04.425Z,11.70
2023-01-06T15:01:37.199Z,11.70
2023-01-06T15:04:21.831Z,11.70
2023-01-06T15:07:12.626Z,12.20
2023-01-06T15:09:44.355Z,11.70
2023-01-06T15:12:23.510Z,11.70
2023-01-06T15:14:55.269Z,11.60
2023-01-06T15:17:26.906Z,11.60
2023-01-06T15:19:59.890Z,11.60
2023-01-06T15:22:31.527Z,11.60
2023-01-06T15:25:05.015Z,11.60
2023-01-06T15:27:36.647Z,11.60
2023-01-06T15:30:15.029Z,11.60
2023-01-06T15:32:46.666Z,11.60
2023-01-06T15:35:21.221Z,11.60
2023-01-06T15:37:58.832Z,11.60
2023-01-06T15:40:30.510Z,11.50
2023-01-06T15:43:02.149Z,11.50
2023-01-06T15:45:33.815Z,12.20
2023-01-06T15:48:08.954Z,11.50
2023-01-06T15:50:41.953Z,11.50
2023-01-06T15:53:18.000Z,11.50
2023-01-06T15:55:49.819Z,11.50
2023-01-06T15:58:22.652Z,11.50
2023-01-06T16:03:28.959Z,11.50
2023-01-06T16:06:11.279Z,11.50
2023-01-06T16:08:43.693Z,11.40
2023-01-06T16:11:26.867Z,11.40
2023-01-06T16:13:58.587Z,11.40
2023-01-06T16:16:31.634Z,11.40
2023-01-06T16:19:07.934Z,11.40
2023-01-06T16:21:40.965Z,11.40
2023-01-06T16:24:20.353Z,11.40
2023-01-06T16:26:53.298Z,11.40
2023-01-06T16:29:26.429Z,11.40
2023-01-06T16:32:00.413Z,11.40
2023-01-06T16:34:32.805Z,11.30
2023-01-06T16:37:05.775Z,11.30
2023-01-06T16:39:37.454Z,11.20
2023-01-06T16:42:20.593Z,11.10
2023-01-06T16:44:59.761Z,11.00
2023-01-06T16:47:31.442Z,11.00
2023-01-06T16:50:07.189Z,10.90
2023-01-06T16:52:40.171Z,10.90
2023-01-06T16:55:12.951Z,10.90
2023-01-06T16:57:46.838Z,10.90
2023-01-06T17:00:19.663Z,10.90
2023-01-06T17:02:51.441Z,10.80
2023-01-06T17:05:25.355Z,10.90
2023-01-06T17:07:59.947Z,10.90
2023-01-06T17:10:31.660Z,10.90
2023-01-06T17:13:03.902Z,10.90
2023-01-06T17:15:35.590Z,11.00
2023-01-06T17:18:22.391Z,11.00
2023-01-06T17:20:58.129Z,11.00
2023-01-06T17:23:34.815Z,11.00
2023-01-06T17:26:10.245Z,11.00
2023-01-06T17:28:41.920Z,11.00
2023-01-06T17:31:14.827Z,10.90
2023-01-06T17:33:46.502Z,10.90
2023-01-06T17:36:21.808Z,10.90
2023-01-06T17:38:54.799Z,10.90
2023-01-06T17:41:26.469Z,10.90
2023-01-06T17:43:58.131Z,10.90
2023-01-06T17:46:31.350Z,10.90
2023-01-06T17:49:07.710Z,10.90
2023-01-06T17:51:39.423Z,10.90
2023-01-06T17:54:16.121Z,11.00
2023-01-06T17:56:47.784Z,11.00
2023-01-06T17:59:19.452Z,11.00
2023-01-06T18:01:51.247Z,11.00
2023-01-06T18:04:23.109Z,11.00
2023-01-06T18:06:54.801Z,11.00
2023-01-06T18:09:27.830Z,11.00
2023-01-06T18:11:59.476Z,11.00
2023-01-06T18:14:31.866Z,10.90
2023-01-06T18:17:08.174Z,10.90
2023-01-06T18:19:39.831Z,10.90
2023-01-06T18:22:15.037Z,10.80
2023-01-06T18:24:48.211Z,10.80
2023-01-06T18:27:22.525Z,10.80
2023-01-06T18:29:56.306Z,10.80
2023-01-06T18:32:31.508Z,10.80
2023-01-06T18:35:04.734Z,10.80
2023-01-06T18:37:36.404Z,10.90
2023-01-06T18:40:12.238Z,10.90
2023-01-06T18:42:44.560Z,11.00
2023-01-06T18:45:21.912Z,11.00
2023-01-06T18:47:55.040Z,11.00
2023-01-06T18:50:29.706Z,11.10
2023-01-06T18:53:01.901Z,11.10
2023-01-06T18:55:36.979Z,11.20
2023-01-06T18:58:16.581Z,11.20
2023-01-06T19:00:50.998Z,11.20
2023-01-06T19:03:30.555Z,11.20
2023-01-06T19:06:34.859Z,11.10
2023-01-06T19:09:25.893Z,11.10
2023-01-06T19:12:15.641Z,11.10
2023-01-06T19:14:48.155Z,11.20
2023-01-06T19:17:24.107Z,11.20
2023-01-06T19:19:56.193Z,11.20
2023-01-06T19:22:28.549Z,11.20
2023-01-06T19:25:01.162Z,11.20
2023-01-06T19:27:42.474Z,11.20
2023-01-06T19:30:44.704Z,11.20
2023-01-06T19:33:36.731Z,11.20
2023-01-06T19:36:41.951Z,11.20
2023-01-06T19:39:29.823Z,11.20
2023-01-06T19:42:12.729Z,11.20
2023-01-06T19:44:47.615Z,11.20
2023-01-06T19:47:21.565Z,11.20
2023-01-06T19:49:54.566Z,11.20
2023-01-06T19:52:32.527Z,11.20
2023-01-06T19:55:28.538Z,11.20
2023-01-06T19:58:02.013Z,11.20
2023-01-06T20:00:38.937Z,11.20
2023-01-06T20:03:22.129Z,11.20
2023-01-06T20:05:53.822Z,11.20
2023-01-06T20:08:25.458Z,11.20
2023-01-06T20:10:57.174Z,11.20
2023-01-06T20:13:28.886Z,11.20
2023-01-06T20:16:01.966Z,11.20
2023-01-06T20:18:33.637Z,11.20
2023-01-06T20:21:05.845Z,11.20
2023-01-06T20:23:37.505Z,11.20
2023-01-06T20:26:09.203Z,11.20
2023-01-06T20:28:40.846Z,11.20
2023-01-06T20:31:13.873Z,11.20
2023-01-06T20:33:45.510Z,11.20
2023-01-06T20:36:17.316Z,11.20
2023-01-06T20:38:49.042Z,11.20
2023-01-06T20:41:20.714Z,11.20
2023-01-06T20:43:52.373Z,11.20
2023-01-06T20:46:25.397Z,11.20
2023-01-06T20:48:57.049Z,11.20
2023-01-06T20:51:28.733Z,11.20
2023-01-06T20:54:00.389Z,11.10
2023-01-06T20:56:32.254Z,11.10
2023-01-06T20:59:03.902Z,11.10
2023-01-06T21:01:37.045Z,11.10
2023-01-06T21:04:08.756Z,11.10
2023-01-06T21:06:40.428Z,11.10
2023-01-06T21:09:12.177Z,11.10
2023-01-06T21:11:43.860Z,11.10
2023-01-06T21:14:15.520Z,11.10
2023-01-06T21:16:48.614Z,11.10
2023-01-06T21:19:20.304Z,11.10
2023-01-06T21:21:51.957Z,11.10
2023-01-06T21:24:23.649Z,11.10
2023-01-06T21:26:55.303Z,11.10
2023-01-06T21:29:27.007Z,11.10
2023-01-06T21:32:00.050Z,11.10
2023-01-06T21:34:31.734Z,11.10
2023-01-06T21:37:03.430Z,11.10
2023-01-06T21:39:35.257Z,11.20
2023-01-06T21:42:06.947Z,11.20
2023-01-06T21:44:38.657Z,11.20
2023-01-06T21:47:11.668Z,11.20
2023-01-06T21:49:43.333Z,11.20
2023-01-06T21:52:15.000Z,11.20
2023-01-06T21:54:46.695Z,11.30
2023-01-06T21:57:18.376Z,11.30
2023-01-06T21:59:50.308Z,11.30
2023-01-06T22:02:23.416Z,11.30
2023-01-06T22:04:55.144Z,11.30
2023-01-06T22:07:26.829Z,11.40
2023-01-06T22:09:58.512Z,11.40
2023-01-06T22:12:30.286Z,11.40
2023-01-06T22:15:02.044Z,11.40
2023-01-06T22:17:35.037Z,11.40
2023-01-06T22:20:07.535Z,11.40
2023-01-06T22:22:39.238Z,11.40
2023-01-06T22:25:10.944Z,11.40
2023-01-06T22:27:42.609Z,11.40
2023-01-06T22:30:14.354Z,11.40
2023-01-06T22:32:47.948Z,11.40
2023-01-06T22:35:19.635Z,11.40
2023-01-06T22:37:51.301Z,11.40
2023-01-06T22:40:22.997Z,11.40
2023-01-06T22:42:54.673Z,11.40
2023-01-06T22:45:26.346Z,11.40
2023-01-06T22:47:59.342Z,11.40
2023-01-06T22:50:31.026Z,11.40
2023-01-06T22:53:02.719Z,11.40
2023-01-06T22:55:34.414Z,11.40
2023-01-06T22:58:06.069Z,11.40
